Time;durP1;ratioP1;P1;durP2;ratioP2;P2;SDS_P1;SDS_P2;PMS_P1;PMS_P2;Temp;Humidity;BMP_temperature;BMP_pressure;BME280_temperature;BME280_humidity;BME280_pressure;Samples;Min_cycle;Max_cycle;Signal;HPM_P1;HPM_P2
2021/10/16 00:02:10;;;;;;;;;2.00;1.00;;;;;13.79;66.60;101775.75;5102832;27;45239;-77
2021/10/16 00:04:35;;;;;;;;;1.00;1.00;;;;;13.77;66.38;101783.59;5103702;27;45222;-77
2021/10/16 00:07:01;;;;;;;;;0.50;0.00;;;;;13.76;66.39;101783.56;5088098;27;45271;-77
2021/10/16 00:09:26;;;;;;;;;0.75;0.75;;;;;13.61;66.56;101769.44;5105949;27;45231;-77
2021/10/16 00:11:52;;;;;;;;;0.00;0.00;;;;;13.59;66.75;101767.63;5095743;27;45410;-76
2021/10/16 00:14:17;;;;;;;;;0.00;0.00;;;;;13.60;66.32;101782.50;5126755;27;45387;-77
2021/10/16 00:16:42;;;;;;;;;1.00;1.00;;;;;13.54;66.73;101778.06;5127129;27;45613;-77
2021/10/16 00:19:08;;;;;;;;;0.00;0.00;;;;;13.51;66.50;101785.88;5125271;27;47195;-77
2021/10/16 00:21:35;;;;;;;;;0.00;0.00;;;;;13.28;66.64;101762.84;5126727;27;45282;-77
2021/10/16 00:24:00;;;;;;;;;0.00;0.00;;;;;13.28;66.91;101766.38;5126798;27;45357;-77
2021/10/16 00:26:25;;;;;;;;;0.00;0.00;;;;;13.19;67.01;101768.84;5127112;27;46111;-77
2021/10/16 00:28:51;;;;;;;;;0.00;0.00;;;;;13.19;67.21;101776.69;5126613;27;45563;-77
2021/10/16 00:31:16;;;;;;;;;1.00;0.00;;;;;13.04;67.27;101748.56;5125339;27;45683;-76
2021/10/16 00:33:41;;;;;;;;;0.75;0.75;;;;;13.15;66.78;101765.31;5108028;27;45461;-75
2021/10/16 00:36:07;;;;;;;;;1.00;1.00;;;;;13.15;66.85;101767.94;5126824;27;45630;-77
2021/10/16 00:38:32;;;;;;;;;0.50;0.50;;;;;13.28;66.99;101795.13;5124405;27;46934;-75
2021/10/16 00:40:58;;;;;;;;;1.50;0.00;;;;;13.05;66.80;101759.06;5107766;27;45310;-75
2021/10/16 00:43:23;;;;;;;;;0.75;0.75;;;;;12.98;66.86;101765.06;5126519;27;45237;-75
2021/10/16 00:45:48;;;;;;;;;2.00;1.00;;;;;12.87;67.20;101759.69;5108341;27;45254;-75
2021/10/16 00:48:14;;;;;;;;;0.00;0.00;;;;;12.83;67.36;101763.06;5126175;27;46069;-77
2021/10/16 00:50:39;;;;;;;;;0.00;0.00;;;;;12.90;67.37;101783.22;5124655;27;45242;-77
2021/10/16 00:53:05;;;;;;;;;0.00;0.00;;;;;12.76;67.41;101766.44;5126275;27;45246;-77
2021/10/16 00:55:30;;;;;;;;;1.00;1.00;;;;;12.50;67.63;101717.28;5107970;27;45274;-76
2021/10/16 00:57:59;;;;;;;;;1.00;1.00;;;;;12.75;67.49;101754.25;5107837;27;47057;-77
2021/10/16 01:00:25;;;;;;;;;0.00;0.00;;;;;12.65;67.15;101737.56;5108014;27;45402;-77
2021/10/16 01:02:50;;;;;;;;;2.00;0.00;;;;;12.64;67.52;101734.06;5107655;27;45389;-76
2021/10/16 01:05:16;;;;;;;;;0.00;0.00;;;;;12.75;67.33;101756.88;5125058;27;45464;-76
2021/10/16 01:07:42;;;;;;;;;1.00;1.00;;;;;12.72;67.45;101744.63;5125911;27;46481;-76
2021/10/16 01:10:10;;;;;;;;;0.00;0.00;;;;;12.85;67.42;101771.84;5107380;27;45302;-76
2021/10/16 01:12:37;;;;;;;;;1.00;1.00;;;;;12.80;67.41;101755.19;5107413;27;45276;-76
2021/10/16 01:15:06;;;;;;;;;0.00;0.00;;;;;12.83;67.01;101762.22;5103862;27;45688;-76
2021/10/16 01:17:33;;;;;;;;;0.00;0.00;;;;;12.59;67.44;101708.72;5085685;27;47893;-76
2021/10/16 01:20:06;;;;;;;;;0.00;0.00;;;;;12.86;67.37;101750.06;5103835;27;45648;-76
2021/10/16 01:22:32;;;;;;;;;1.00;1.00;;;;;12.92;66.98;101757.13;5105170;27;45244;-75
2021/10/16 01:24:59;;;;;;;;;0.25;0.25;;;;;12.87;67.09;101757.06;5087130;27;45574;-76
2021/10/16 01:27:27;;;;;;;;;0.00;0.00;;;;;13.00;66.73;101772.91;5105040;27;46644;-77
2021/10/16 01:29:55;;;;;;;;;0.00;0.00;;;;;12.83;66.68;101757.84;5086465;27;45640;-77
2021/10/16 01:32:30;;;;;;;;;0.00;0.00;;;;;12.62;67.14;101730.53;5103616;27;45320;-77
2021/10/16 01:34:55;;;;;;;;;0.00;0.00;;;;;12.64;67.11;101761.91;5105163;27;45610;-77
2021/10/16 01:37:20;;;;;;;;;1.00;0.00;;;;;12.65;67.15;101755.84;5086285;27;48084;-77
2021/10/16 01:39:46;;;;;;;;;1.00;0.00;;;;;12.61;67.27;101749.69;5105057;27;45317;-77
2021/10/16 01:42:15;;;;;;;;;0.00;0.00;;;;;12.77;67.06;101776.06;5086864;27;45316;-77
2021/10/16 01:44:41;;;;;;;;;3.00;0.00;;;;;12.62;67.00;101755.78;5086846;27;45547;-77
2021/10/16 01:47:12;;;;;;;;;0.00;0.00;;;;;12.64;67.69;101759.28;5086248;27;46961;-77
2021/10/16 01:49:39;;;;;;;;;0.00;0.00;;;;;12.41;67.44;101724.09;5104567;27;45216;-77
2021/10/16 01:52:07;;;;;;;;;0.00;0.00;;;;;12.40;67.45;101719.75;5086236;27;45307;-77
2021/10/16 01:54:33;;;;;;;;;0.00;0.00;;;;;12.68;67.52;101763.69;5085800;27;45544;-76
2021/10/16 01:57:02;;;;;;;;;0.00;0.00;;;;;12.57;67.56;101747.88;5086466;27;47272;-76
2021/10/16 01:59:28;;;;;;;;;0.75;0.75;;;;;12.30;67.63;101699.53;5086972;27;45249;-76
2021/10/16 02:01:56;;;;;;;;;0.75;0.00;;;;;12.59;67.33;101755.75;5086673;27;45287;-77
2021/10/16 02:04:25;;;;;;;;;0.00;0.00;;;;;12.35;67.51;101716.19;5086943;27;45430;-80
2021/10/16 02:06:51;;;;;;;;;0.00;0.00;;;;;12.33;67.23;101717.88;5085907;27;45684;-76
2021/10/16 02:09:16;;;;;;;;;0.75;0.75;;;;;12.58;67.00;101756.56;5104564;27;45366;-77
2021/10/16 02:11:42;;;;;;;;;0.50;0.50;;;;;12.27;67.12;101710.81;5104414;27;45223;-79
2021/10/16 02:14:11;;;;;;;;;0.00;0.00;;;;;12.46;67.39;101739.00;5085789;27;45596;-75
2021/10/16 02:16:37;;;;;;;;;0.00;0.00;;;;;12.11;67.42;101678.34;5104130;27;46286;-75
2021/10/16 02:19:03;;;;;;;;;0.00;0.00;;;;;12.48;67.32;101745.09;5085712;27;45374;-78
2021/10/16 02:21:32;;;;;;;;;0.00;0.00;;;;;12.05;67.42;101675.59;5086088;27;45355;-78
2021/10/16 02:24:04;;;;;;;;;0.75;0.00;;;;;12.10;67.35;101694.84;5085691;27;45271;-75
2021/10/16 02:26:32;;;;;;;;;3.00;0.00;;;;;12.29;67.30;101723.91;5085528;27;47748;-75
2021/10/16 02:31:52;;;;;;;;;0.00;0.00;;;;;11.38;67.55;101570.97;5103887;27;45451;-76
2021/10/16 02:34:24;;;;;;;;;0.75;0.75;;;;;12.45;67.40;101756.38;5085728;27;45536;-76
2021/10/16 02:36:55;;;;;;;;;0.50;0.00;;;;;11.37;67.37;101557.91;5085417;27;45416;-76
2021/10/16 02:39:33;;;;;;;;;0.00;0.00;;;;;11.83;67.17;101632.59;5103794;27;45258;-76
2021/10/16 02:42:14;;;;;;;;;0.00;0.00;;;;;12.20;67.01;101698.53;5085488;27;45291;-77
2021/10/16 02:44:53;;;;;;;;;0.00;0.00;;;;;12.45;67.33;101747.66;5085677;27;45518;-75
2021/10/16 02:48:06;;;;;;;;;0.00;0.00;;;;;12.43;67.15;101739.78;5085285;27;46941;-78
2021/10/16 02:51:32;;;;;;;;;0.00;0.00;;;;;10.95;66.94;101499.75;5039461;28;45339;-76
2021/10/16 02:54:16;;;;;;;;;0.00;0.00;;;;;10.96;67.08;101506.75;4961454;28;45412;-77
2021/10/16 02:57:02;;;;;;;;;1.25;0.50;;;;;12.35;67.15;101736.19;4945705;28;45453;-76
2021/10/16 02:59:35;;;;;;;;;0.75;0.00;;;;;11.18;67.50;101561.88;5040228;28;47419;-75
2021/10/16 03:02:03;;;;;;;;;0.25;0.25;;;;;11.49;67.42;101612.00;5040325;28;45281;-76
2021/10/16 03:04:34;;;;;;;;;0.00;0.00;;;;;11.47;67.39;101609.34;5023556;28;45288;-79
2021/10/16 03:06:59;;;;;;;;;0.00;0.00;;;;;11.05;67.33;101540.78;5034502;27;45347;-75
2021/10/16 03:09:25;;;;;;;;;0.00;0.00;;;;;11.77;67.63;101665.53;5103061;27;45577;-75
2021/10/16 03:11:50;;;;;;;;;0.00;0.00;;;;;11.97;67.62;101691.13;5084951;27;45685;-75
2021/10/16 03:14:16;;;;;;;;;0.00;0.00;;;;;12.22;67.59;101735.09;5089112;27;45381;-75
2021/10/16 03:16:41;;;;;;;;;0.50;0.50;;;;;11.83;67.29;101662.19;5105683;27;45303;-76
2021/10/16 03:19:06;;;;;;;;;0.00;0.00;;;;;12.10;67.81;101700.06;5105493;27;47063;-76
2021/10/16 03:21:32;;;;;;;;;0.00;0.00;;;;;12.09;67.79;101698.31;5105380;27;45851;-76
2021/10/16 03:23:57;;;;;;;;;0.00;0.00;;;;;11.89;67.67;101669.25;5123841;27;45341;-76
2021/10/16 03:26:22;;;;;;;;;0.00;0.00;;;;;11.82;67.40;101664.75;5105761;27;45758;-77
2021/10/16 03:28:48;;;;;;;;;0.00;0.00;;;;;12.06;67.42;101707.81;5105323;27;47149;-75
2021/10/16 03:31:13;;;;;;;;;0.75;0.00;;;;;11.96;67.60;101702.41;5123766;27;45397;-77
2021/10/16 03:33:39;;;;;;;;;0.00;0.00;;;;;11.98;67.54;101702.44;5123412;27;45707;-77
2021/10/16 03:36:04;;;;;;;;;0.00;0.00;;;;;12.06;67.71;101711.28;5104877;27;45324;-77
2021/10/16 03:38:29;;;;;;;;;0.00;0.00;;;;;12.15;67.59;101726.25;5122825;27;45471;-77
2021/10/16 03:40:55;;;;;;;;;0.00;0.00;;;;;12.18;67.43;101723.72;5104693;27;45967;-77
2021/10/16 03:43:20;;;;;;;;;0.00;0.00;;;;;12.10;67.70;101717.47;5123594;27;45639;-77
2021/10/16 03:45:45;;;;;;;;;0.25;0.25;;;;;12.11;67.36;101716.63;5105285;27;45406;-78
2021/10/16 03:48:11;;;;;;;;;0.00;0.00;;;;;11.99;67.29;101704.19;5104581;27;47668;-75
2021/10/16 03:50:36;;;;;;;;;0.00;0.00;;;;;11.95;67.08;101691.94;5101258;27;45326;-76
2021/10/16 03:53:02;;;;;;;;;0.50;0.00;;;;;11.96;67.10;101711.97;5101487;27;45274;-75
2021/10/16 03:55:27;;;;;;;;;0.75;0.75;;;;;11.89;67.50;101700.53;5101926;27;45241;-76
2021/10/16 03:57:52;;;;;;;;;0.00;0.00;;;;;12.01;67.64;101720.78;5102741;27;46564;-77
2021/10/16 04:00:21;;;;;;;;;0.00;0.00;;;;;11.93;67.66;101710.19;5101254;27;45315;-77
2021/10/16 04:02:50;;;;;;;;;0.00;0.00;;;;;12.11;67.40;101730.56;5100948;27;45499;-77
2021/10/16 04:05:16;;;;;;;;;0.50;0.50;;;;;12.15;67.66;101737.59;5100993;27;45306;-76
2021/10/16 04:07:42;;;;;;;;;0.00;0.00;;;;;11.81;67.62;101681.25;5101121;27;48209;-77
2021/10/16 04:10:08;;;;;;;;;0.00;0.00;;;;;12.01;67.21;101724.25;5102284;27;45396;-77
2021/10/16 04:12:34;;;;;;;;;0.00;0.00;;;;;12.04;67.40;101718.22;5101365;27;45464;-77
2021/10/16 04:14:59;;;;;;;;;0.00;0.00;;;;;11.97;67.42;101706.78;5101469;27;45319;-77
2021/10/16 04:17:24;;;;;;;;;0.00;0.00;;;;;12.08;67.10;101727.00;5102446;27;45311;-77
2021/10/16 04:19:50;;;;;;;;;0.75;0.00;;;;;11.89;66.80;101693.56;5100841;27;46208;-77
2021/10/16 04:22:15;;;;;;;;;0.00;0.00;;;;;11.80;66.61;101680.38;5101099;27;45236;-77
2021/10/16 04:24:41;;;;;;;;;0.00;0.00;;;;;11.77;66.55;101682.94;5118639;27;45244;-77
2021/10/16 04:27:06;;;;;;;;;0.00;0.00;;;;;11.86;66.52;101714.41;5102417;27;46344;-75
2021/10/16 04:29:31;;;;;;;;;0.00;0.00;;;;;11.79;66.54;101704.69;5101062;27;45332;-76
2021/10/16 04:31:57;;;;;;;;;0.75;0.00;;;;;11.79;66.75;101715.13;5101016;27;45390;-75
2021/10/16 04:34:23;;;;;;;;;1.25;0.25;;;;;11.81;66.68;101718.66;5102639;27;45329;-77
2021/10/16 04:36:48;;;;;;;;;0.00;0.00;;;;;11.82;66.41;101720.41;5102524;27;45347;-76
2021/10/16 04:39:14;;;;;;;;;0.00;0.00;;;;;11.66;66.55;101695.75;5102026;27;45336;-76
2021/10/16 04:41:39;;;;;;;;;0.00;0.00;;;;;11.82;66.37;101732.59;5101091;27;45645;-76
2021/10/16 04:44:05;;;;;;;;;0.00;0.00;;;;;11.71;66.38;101709.78;5101123;27;45600;-77
2021/10/16 04:46:31;;;;;;;;;0.00;0.00;;;;;11.60;66.72;101685.19;5100586;27;47907;-75
2021/10/16 04:48:56;;;;;;;;;0.00;0.00;;;;;11.85;66.49;101736.13;5101955;27;45368;-75
2021/10/16 04:51:22;;;;;;;;;0.00;0.00;;;;;11.60;66.75;101693.91;5124849;27;45334;-76
2021/10/16 04:53:47;;;;;;;;;1.75;0.00;;;;;11.78;66.10;101729.03;5107739;27;45440;-76
2021/10/16 04:56:12;;;;;;;;;0.00;0.00;;;;;11.87;66.56;101754.41;5125913;27;46407;-76
2021/10/16 04:58:38;;;;;;;;;0.00;0.00;;;;;11.88;66.61;101751.84;5107701;27;45280;-76
2021/10/16 05:01:03;;;;;;;;;0.00;0.00;;;;;11.61;66.39;101715.66;5126370;27;45591;-76
2021/10/16 05:03:29;;;;;;;;;0.00;0.00;;;;;11.36;66.71;101678.66;5126360;27;45422;-75
2021/10/16 05:05:54;;;;;;;;;0.00;0.00;;;;;11.43;66.56;101695.31;5124840;27;47130;-76
2021/10/16 05:08:19;;;;;;;;;0.75;0.75;;;;;11.59;66.51;101738.22;5107492;27;45888;-75
2021/10/16 05:10:45;;;;;;;;;0.50;0.50;;;;;11.69;67.17;101762.75;5107701;27;45414;-75
2021/10/16 05:13:10;;;;;;;;;1.50;0.00;;;;;11.63;66.62;101742.63;5103790;27;45280;-76
2021/10/16 05:15:36;;;;;;;;;0.50;0.50;;;;;11.51;66.90;101725.00;5119532;27;45767;-78
2021/10/16 05:18:01;;;;;;;;;0.00;0.00;;;;;11.73;66.96;101744.59;5106926;27;45188;-77
2021/10/16 05:20:26;;;;;;;;;1.75;0.50;;;;;11.78;66.77;101736.84;5125856;27;45218;-77
2021/10/16 05:22:52;;;;;;;;;0.00;0.00;;;;;11.74;66.88;101719.38;5107513;27;45397;-78
2021/10/16 05:25:17;;;;;;;;;0.00;0.00;;;;;11.94;66.46;101745.00;5106993;27;48476;-75
2021/10/16 05:27:43;;;;;;;;;0.00;0.00;;;;;11.83;66.50;101719.56;5125581;27;45340;-76
2021/10/16 05:30:09;;;;;;;;;0.00;0.00;;;;;11.93;66.52;101732.78;5107216;27;45337;-76
2021/10/16 05:32:35;;;;;;;;;0.00;0.00;;;;;11.88;66.20;101730.97;5124682;27;45568;-77
2021/10/16 05:35:00;;;;;;;;;0.75;0.00;;;;;11.87;66.40;101755.31;5123936;27;46980;-76
2021/10/16 05:37:26;;;;;;;;;0.00;0.00;;;;;11.90;66.20;101760.59;5106329;27;45386;-76
2021/10/16 05:39:51;;;;;;;;;0.75;0.75;;;;;11.90;66.84;101754.47;5125551;27;45449;-77
2021/10/16 05:42:17;;;;;;;;;0.00;0.00;;;;;11.87;66.87;101768.34;5106799;27;45592;-76
2021/10/16 05:44:42;;;;;;;;;0.00;0.00;;;;;11.66;66.97;101714.91;5106320;27;48208;-76
2021/10/16 05:47:08;;;;;;;;;2.00;1.75;;;;;11.77;67.18;101735.09;5123562;27;45771;-75
2021/10/16 05:49:33;;;;;;;;;0.00;0.00;;;;;11.83;67.14;101756.09;5106451;27;45397;-78
2021/10/16 05:51:58;;;;;;;;;0.00;0.00;;;;;11.85;67.09;101749.16;5125230;27;45571;-77
2021/10/16 05:54:24;;;;;;;;;0.00;0.00;;;;;11.77;67.18;101729.88;5125239;27;45522;-77
2021/10/16 05:56:49;;;;;;;;;0.00;0.00;;;;;11.90;67.23;101750.16;5125084;27;45145;-78
2021/10/16 05:59:15;;;;;;;;;0.00;0.00;;;;;11.82;66.80;101736.06;5106602;27;45205;-78
2021/10/16 06:01:40;;;;;;;;;1.75;0.00;;;;;11.69;67.23;101697.53;5125035;27;45495;-76
2021/10/16 06:04:05;;;;;;;;;1.00;0.25;;;;;12.03;67.42;101756.47;5123049;27;48136;-76
2021/10/16 06:06:31;;;;;;;;;0.25;0.25;;;;;11.84;67.04;101723.94;5106096;27;45689;-76
2021/10/16 06:08:56;;;;;;;;;0.00;0.00;;;;;11.89;66.83;101748.38;5124614;27;45931;-77
2021/10/16 06:11:21;;;;;;;;;0.75;0.75;;;;;12.00;66.80;101759.03;5124006;27;45215;-77
2021/10/16 06:13:47;;;;;;;;;1.00;0.00;;;;;11.95;66.83;101758.06;5124768;27;46597;-78
2021/10/16 06:16:12;;;;;;;;;0.00;0.00;;;;;11.82;66.80;101729.97;5124994;27;45398;-76
2021/10/16 06:18:40;;;;;;;;;1.50;1.00;;;;;12.06;66.82;101766.09;5105533;27;45347;-77
2021/10/16 06:21:06;;;;;;;;;2.00;0.00;;;;;12.00;66.98;101759.03;5124942;27;45295;-76
2021/10/16 06:23:31;;;;;;;;;0.75;0.75;;;;;12.13;66.95;101775.81;5105547;27;46894;-77
2021/10/16 06:25:57;;;;;;;;;0.00;0.00;;;;;12.07;66.65;101757.44;5105456;27;45486;-78
2021/10/16 06:28:23;;;;;;;;;0.00;0.00;;;;;11.72;66.62;101702.81;5123328;27;45361;-77
2021/10/16 06:30:48;;;;;;;;;0.75;0.00;;;;;12.07;66.39;101780.91;5124833;27;45262;-76
2021/10/16 06:33:13;;;;;;;;;0.00;0.00;;;;;11.79;66.35;101728.16;5123566;27;46063;-78
2021/10/16 06:35:41;;;;;;;;;0.75;0.75;;;;;11.94;66.84;101753.69;5124444;27;45237;-77
2021/10/16 06:38:07;;;;;;;;;0.00;0.00;;;;;12.12;66.48;101778.41;5123802;27;45454;-79
2021/10/16 06:40:32;;;;;;;;;0.00;0.00;;;;;12.10;66.63;101770.53;5124787;27;45317;-77
2021/10/16 06:42:57;;;;;;;;;0.50;0.50;;;;;11.90;66.51;101729.28;5105815;27;47471;-75
2021/10/16 06:45:23;;;;;;;;;0.00;0.00;;;;;12.12;66.58;101770.56;5108112;27;45282;-78
2021/10/16 06:47:48;;;;;;;;;1.25;0.00;;;;;11.94;66.50;101745.00;5103777;27;45274;-79
2021/10/16 06:50:14;;;;;;;;;0.25;0.25;;;;;11.88;66.57;101749.22;5103813;27;45527;-78
2021/10/16 06:52:39;;;;;;;;;0.00;0.00;;;;;11.75;66.70;101727.25;5101802;27;46939;-78
2021/10/16 06:55:05;;;;;;;;;0.00;0.00;;;;;11.91;66.89;101748.41;5099721;27;45773;-78
2021/10/16 06:57:30;;;;;;;;;0.75;0.75;;;;;11.79;66.60;101749.03;5120706;27;45458;-78
2021/10/16 06:59:56;;;;;;;;;0.75;0.50;;;;;11.77;66.83;101756.84;5104123;27;45638;-77
2021/10/16 07:02:21;;;;;;;;;0.00;0.00;;;;;11.97;66.77;101794.63;5103198;27;48223;-77
2021/10/16 07:04:46;;;;;;;;;1.00;1.00;;;;;11.98;66.80;101778.13;5122941;27;45330;-80
2021/10/16 07:07:12;;;;;;;;;0.00;0.00;;;;;11.81;66.69;101752.56;5106561;27;45688;-77
2021/10/16 07:09:37;;;;;;;;;0.50;0.50;;;;;11.94;67.11;101778.91;5103840;27;45367;-78
2021/10/16 07:12:03;;;;;;;;;0.50;0.50;;;;;11.80;66.85;101776.91;5119226;27;45544;-78
2021/10/16 07:14:28;;;;;;;;;0.25;0.25;;;;;11.88;67.15;101800.53;5101250;27;45345;-79
2021/10/16 07:16:53;;;;;;;;;0.00;0.00;;;;;11.53;67.34;101747.69;5102148;27;45474;-78
2021/10/16 07:19:19;;;;;;;;;1.00;0.00;;;;;11.81;67.07;101782.97;5102989;27;45358;-80
2021/10/16 07:21:45;;;;;;;;;0.00;0.00;;;;;11.78;66.63;101776.88;5102131;27;47618;-80
2021/10/16 07:24:10;;;;;;;;;0.75;0.50;;;;;11.94;66.72;101794.56;5115572;27;45337;-79
2021/10/16 07:26:36;;;;;;;;;0.00;0.00;;;;;12.00;66.72;101807.72;5099878;27;45216;-80
2021/10/16 07:29:02;;;;;;;;;0.00;0.00;;;;;11.91;66.47;101798.88;5123717;27;45280;-80
2021/10/16 07:31:29;;;;;;;;;0.00;0.00;;;;;12.02;66.84;101811.25;5126253;27;46653;-81
2021/10/16 07:33:56;;;;;;;;;1.75;0.00;;;;;11.84;66.86;101785.66;5104011;27;45941;-81
2021/10/16 07:36:22;;;;;;;;;0.50;0.00;;;;;11.79;67.02;101773.41;5104476;27;45496;-82
2021/10/16 07:38:47;;;;;;;;;0.75;0.75;;;;;12.03;66.77;101792.13;5104859;27;45600;-78
2021/10/16 07:41:13;;;;;;;;;0.25;0.25;;;;;12.13;66.48;101788.00;5104834;27;47831;-81
2021/10/16 07:43:38;;;;;;;;;8.00;1.00;;;;;12.14;66.43;101759.34;5123560;27;45282;-81
2021/10/16 07:46:03;;;;;;;;;0.50;0.50;;;;;12.39;65.61;101785.00;5104821;27;45394;-79
2021/10/16 07:48:29;;;;;;;;;0.00;0.00;;;;;12.49;65.75;101788.63;5103717;27;45616;-80
2021/10/16 07:50:54;;;;;;;;;1.50;0.00;;;;;12.53;65.12;101791.34;5122408;27;45518;-80
2021/10/16 07:53:20;;;;;;;;;0.50;0.50;;;;;12.47;65.17;101777.31;5099343;27;45513;-78
2021/10/16 07:55:45;;;;;;;;;0.00;0.00;;;;;12.44;64.89;101775.53;5104521;27;45547;-81
2021/10/16 07:58:10;;;;;;;;;0.00;0.00;;;;;12.74;65.07;101809.97;5104374;27;45480;-78
2021/10/16 08:00:36;;;;;;;;;1.00;1.00;;;;;12.70;64.74;101797.69;5122230;27;45484;-78
2021/10/16 08:03:01;;;;;;;;;0.00;0.00;;;;;12.79;64.41;101803.09;5103414;27;45259;-79
2021/10/16 08:05:26;;;;;;;;;0.00;0.00;;;;;12.64;64.51;101773.25;5107215;27;45437;-81
2021/10/16 08:07:52;;;;;;;;;0.00;0.00;;;;;12.84;64.04;101788.38;5123075;27;45411;-78
2021/10/16 08:10:18;;;;;;;;;0.00;0.00;;;;;12.83;64.07;101780.50;5104288;27;47512;-82
2021/10/16 08:12:44;;;;;;;;;0.00;0.00;;;;;13.04;63.52;101806.97;5103860;27;45525;-80
2021/10/16 08:15:10;;;;;;;;;0.00;0.00;;;;;13.09;63.46;101798.31;5122606;27;45361;-79
2021/10/16 08:17:36;;;;;;;;;0.00;0.00;;;;;13.27;63.60;101811.69;5104292;27;45415;-79
2021/10/16 08:20:03;;;;;;;;;0.00;0.00;;;;;13.32;63.21;101789.94;5113315;27;46897;-78
2021/10/16 08:22:29;;;;;;;;;0.00;0.00;;;;;13.27;62.84;101772.47;5107632;27;45303;-76
2021/10/16 08:24:55;;;;;;;;;0.00;0.00;;;;;13.58;63.00;101806.03;5105003;27;45432;-87
2021/10/16 08:27:20;;;;;;;;;0.00;0.00;;;;;13.67;62.44;101803.53;5127505;27;45464;-85
2021/10/16 08:29:46;;;;;;;;;0.00;0.00;;;;;13.49;62.35;101751.84;5119205;27;46564;-81
2021/10/16 08:32:11;;;;;;;;;0.25;0.25;;;;;13.24;62.00;101704.44;5107858;27;45631;-79
2021/10/16 08:34:36;;;;;;;;;0.00;0.00;;;;;13.76;61.72;101794.91;5123328;27;44831;-79
2021/10/16 08:37:02;;;;;;;;;1.00;0.25;;;;;13.87;61.87;101823.81;5106708;27;45562;-80
2021/10/16 08:39:27;;;;;;;;;0.00;0.00;;;;;13.77;61.57;101798.41;5124663;27;45541;-79
2021/10/16 08:41:53;;;;;;;;;0.25;0.00;;;;;13.60;61.71;101761.56;5110097;27;45472;-80
2021/10/16 08:44:18;;;;;;;;;0.00;0.00;;;;;13.54;61.44;101771.09;5146678;27;44822;-81
2021/10/16 08:46:44;;;;;;;;;0.00;0.00;;;;;13.20;61.17;101747.06;5128553;27;44786;-80
2021/10/16 08:49:14;;;;;;;;;2.50;1.00;;;;;13.85;60.96;101832.53;5146403;27;45214;-79
2021/10/16 08:51:41;;;;;;;;;0.50;0.50;;;;;13.90;61.11;101847.41;5145408;27;45295;-78
2021/10/16 08:54:07;;;;;;;;;1.50;0.25;;;;;13.84;60.43;101836.00;5111456;27;45285;-80
2021/10/16 08:56:32;;;;;;;;;0.75;0.75;;;;;14.00;60.50;101860.63;5124904;27;45421;-79
2021/10/16 08:58:58;;;;;;;;;0.00;0.00;;;;;13.95;60.92;101837.00;5105964;27;46992;-79
2021/10/16 09:01:23;;;;;;;;;0.00;0.00;;;;;13.87;60.97;101808.13;5106864;27;45340;-79
2021/10/16 09:03:52;;;;;;;;;0.00;0.00;;;;;13.67;60.80;101764.28;5107134;27;45345;-79
2021/10/16 09:06:27;;;;;;;;;0.00;0.00;;;;;13.78;60.60;101768.75;5106634;27;45595;-78
2021/10/16 09:09:09;;;;;;;;;0.25;0.25;;;;;14.00;60.49;101814.38;5106624;27;47324;-80
2021/10/16 09:11:45;;;;;;;;;2.00;0.75;;;;;13.68;60.41;101771.25;5125213;27;45349;-80
2021/10/16 09:14:18;;;;;;;;;1.00;1.00;;;;;14.27;60.47;101851.34;5124362;27;45393;-80
2021/10/16 09:16:48;;;;;;;;;2.25;2.25;;;;;14.21;60.38;101827.72;5124625;27;45497;-82
2021/10/16 09:19:20;;;;;;;;;0.75;0.75;;;;;14.48;59.92;101844.59;5125152;27;45337;-80
2021/10/16 09:22:01;;;;;;;;;0.25;0.25;;;;;14.66;59.58;101842.13;5107486;27;45927;-79
2021/10/16 09:24:34;;;;;;;;;0.00;0.00;;;;;14.80;59.58;101847.50;5107761;27;45386;-80
2021/10/16 09:27:12;;;;;;;;;0.00;0.00;;;;;14.84;59.32;101842.28;5126246;27;45219;-79
2021/10/16 09:29:44;;;;;;;;;1.00;1.00;;;;;14.67;59.21;101795.84;5106910;27;47725;-80
2021/10/16 09:32:15;;;;;;;;;0.00;0.00;;;;;14.74;58.23;101800.28;5125595;27;45481;-79
2021/10/16 09:34:43;;;;;;;;;0.00;0.00;;;;;15.05;58.13;101829.38;5106596;27;45401;-79
2021/10/16 09:37:20;;;;;;;;;0.00;0.00;;;;;15.23;57.49;101843.50;5105883;27;45251;-80
2021/10/16 09:39:48;;;;;;;;;0.00;0.00;;;;;15.33;57.65;101836.53;5125402;27;45587;-80
2021/10/16 09:42:42;;;;;;;;;0.00;0.00;;;;;15.35;57.08;101834.81;5124945;27;45362;-79
2021/10/16 09:45:11;;;;;;;;;0.00;0.00;;;;;14.99;57.33;101768.13;5106013;27;45407;-78
2021/10/16 09:47:37;;;;;;;;;0.50;0.50;;;;;15.27;56.77;101812.91;5124771;27;45467;-79
2021/10/16 09:50:07;;;;;;;;;0.00;0.00;;;;;15.50;56.45;101844.50;5105387;27;45642;-81
2021/10/16 09:52:38;;;;;;;;;0.00;0.00;;;;;15.55;56.34;101849.78;5105926;27;45443;-80
2021/10/16 09:55:06;;;;;;;;;0.50;0.50;;;;;15.32;55.54;101809.44;5106243;27;45488;-80
2021/10/16 09:57:32;;;;;;;;;0.00;0.00;;;;;15.13;55.19;101760.38;5125243;27;45500;-81
2021/10/16 10:00:03;;;;;;;;;0.00;0.00;;;;;15.75;55.35;101835.91;5124759;27;45483;-78
2021/10/16 10:02:30;;;;;;;;;1.00;0.50;;;;;15.85;55.02;101837.69;5106512;27;45846;-78
2021/10/16 10:04:56;;;;;;;;;0.00;0.00;;;;;15.68;54.90;101791.25;5106335;27;45271;-78
2021/10/16 10:07:23;;;;;;;;;0.00;0.00;;;;;15.86;54.65;101797.44;5124788;27;45239;-79
2021/10/16 10:09:50;;;;;;;;;0.00;0.00;;;;;15.95;54.78;101807.97;5124620;27;45346;-79
2021/10/16 10:12:16;;;;;;;;;1.00;0.00;;;;;15.92;54.26;101800.09;5124401;27;45353;-79
2021/10/16 10:14:47;;;;;;;;;0.00;0.00;;;;;16.30;54.00;101831.75;5106056;27;45390;-78
2021/10/16 10:17:22;;;;;;;;;0.00;0.00;;;;;16.18;53.71;101801.94;5106443;27;45490;-78
2021/10/16 10:19:53;;;;;;;;;0.75;0.00;;;;;16.17;53.74;101783.56;5105271;27;47844;-78
2021/10/16 10:22:20;;;;;;;;;0.00;0.00;;;;;16.56;53.63;101826.53;5124496;27;45314;-82
2021/10/16 10:24:48;;;;;;;;;0.75;0.75;;;;;16.65;53.00;101835.28;5124606;27;45181;-80
2021/10/16 10:27:17;;;;;;;;;0.00;0.00;;;;;16.71;52.84;101830.03;5106249;27;45588;-80
2021/10/16 10:29:46;;;;;;;;;1.00;0.00;;;;;16.70;52.58;101812.50;5124317;27;45249;-80
2021/10/16 10:32:26;;;;;;;;;0.00;0.00;;;;;16.86;51.88;101831.78;5105524;27;45320;-79
2021/10/16 10:34:53;;;;;;;;;0.00;0.00;;;;;16.66;51.53;101814.25;5105839;27;45378;-80
2021/10/16 10:37:19;;;;;;;;;0.75;0.00;;;;;16.77;50.92;101837.03;5124561;27;45323;-78
2021/10/16 10:39:48;;;;;;;;;0.50;0.00;;;;;16.73;51.53;101815.16;5124243;27;46305;-80
2021/10/16 10:42:14;;;;;;;;;0.00;0.00;;;;;16.85;50.54;101838.78;5124496;27;45400;-81
2021/10/16 10:44:45;;;;;;;;;0.00;0.00;;;;;16.72;50.69;101816.88;5124007;27;45325;-80
2021/10/16 10:47:19;;;;;;;;;0.00;0.00;;;;;16.96;50.40;101833.53;5124365;27;45302;-79
2021/10/16 10:49:45;;;;;;;;;0.00;0.00;;;;;16.88;50.73;101819.53;5104800;27;47230;-80
2021/10/16 10:52:10;;;;;;;;;0.00;0.00;;;;;16.85;50.13;101830.91;5124803;27;45333;-80
2021/10/16 10:54:37;;;;;;;;;0.00;0.00;;;;;16.72;50.69;101816.88;5124713;27;45230;-80
2021/10/16 10:57:03;;;;;;;;;0.00;0.00;;;;;16.64;49.96;101810.75;5125543;27;45391;-80
2021/10/16 10:59:28;;;;;;;;;0.00;0.00;;;;;15.99;49.94;101714.38;5105986;27;47049;-80
2021/10/16 11:02:03;;;;;;;;;0.00;0.00;;;;;16.05;50.40;101732.75;5123659;27;45352;-79
2021/10/16 11:04:39;;;;;;;;;1.00;0.00;;;;;16.59;50.16;101828.28;5123124;27;45290;-79
2021/10/16 11:07:11;;;;;;;;;0.00;0.00;;;;;16.52;49.62;101814.25;5104679;27;45454;-79
2021/10/16 11:09:38;;;;;;;;;0.00;0.00;;;;;16.57;49.30;101816.91;5121648;27;46138;-82
2021/10/16 11:12:04;;;;;;;;;1.00;1.00;;;;;16.59;48.59;101818.66;5113321;27;45396;-80
2021/10/16 11:14:39;;;;;;;;;0.25;0.00;;;;;16.45;49.00;101775.72;5101902;27;45354;-80
2021/10/16 11:17:10;;;;;;;;;0.00;0.00;;;;;16.66;49.00;101816.03;5103895;27;45452;-80
2021/10/16 11:19:54;;;;;;;;;0.00;0.00;;;;;16.58;48.71;101806.38;5123540;27;45470;-86
2021/10/16 11:22:39;;;;;;;;;1.25;1.00;;;;;16.39;48.15;101779.22;5124728;27;45673;-79
2021/10/16 11:25:05;;;;;;;;;0.00;0.00;;;;;16.60;48.34;101806.34;5121607;27;45406;-79
2021/10/16 11:27:30;;;;;;;;;0.00;0.00;;;;;16.53;48.17;101792.34;5115361;27;45299;-81
2021/10/16 11:29:56;;;;;;;;;0.00;0.00;;;;;16.39;48.79;101773.97;5135853;27;45002;-80